sensor_id;sensor_type;location;lat;lon;timestamp;temperature;humidity
46139;DHT22;32398;49.112;8.598;2024-02-21T00:01:47;8.60;99.90
46139;DHT22;32398;49.112;8.598;2024-02-21T00:04:13;8.50;99.90
46139;DHT22;32398;49.112;8.598;2024-02-21T00:06:41;8.50;99.90
46139;DHT22;32398;49.112;8.598;2024-02-21T00:09:08;8.60;99.90
46139;DHT22;32398;49.112;8.598;2024-02-21T00:11:36;8.50;99.90
46139;DHT22;32398;49.112;8.598;2024-02-21T00:14:03;8.60;99.90
46139;DHT22;32398;49.112;8.598;2024-02-21T00:16:29;8.50;99.90
46139;DHT22;32398;49.112;8.598;2024-02-21T00:18:56;8.60;99.90
46139;DHT22;32398;49.112;8.598;2024-02-21T00:21:22;8.50;99.90
46139;DHT22;32398;49.112;8.598;2024-02-21T00:23:49;8.50;99.90
46139;DHT22;32398;49.112;8.598;2024-02-21T00:26:16;8.50;99.90
46139;DHT22;32398;49.112;8.598;2024-02-21T00:28:44;8.50;99.90
46139;DHT22;32398;49.112;8.598;2024-02-21T00:31:11;8.50;99.90
46139;DHT22;32398;49.112;8.598;2024-02-21T00:33:37;8.50;99.90
46139;DHT22;32398;49.112;8.598;2024-02-21T00:36:04;8.50;99.90
46139;DHT22;32398;49.112;8.598;2024-02-21T00:38:31;8.50;99.90
46139;DHT22;32398;49.112;8.598;2024-02-21T00:40:57;8.50;99.90
46139;DHT22;32398;49.112;8.598;2024-02-21T00:43:24;8.50;99.90
46139;DHT22;32398;49.112;8.598;2024-02-21T00:45:52;8.50;99.90
46139;DHT22;32398;49.112;8.598;2024-02-21T00:48:18;8.50;99.90
46139;DHT22;32398;49.112;8.598;2024-02-21T00:50:45;8.50;99.90
46139;DHT22;32398;49.112;8.598;2024-02-21T00:53:11;8.50;99.90
46139;DHT22;32398;49.112;8.598;2024-02-21T00:55:38;8.50;99.90
46139;DHT22;32398;49.112;8.598;2024-02-21T00:58:05;8.50;99.90
46139;DHT22;32398;49.112;8.598;2024-02-21T01:00:32;8.50;99.90
46139;DHT22;32398;49.112;8.598;2024-02-21T01:03:00;8.50;99.90
46139;DHT22;32398;49.112;8.598;2024-02-21T01:05:26;8.40;99.90
46139;DHT22;32398;49.112;8.598;2024-02-21T01:07:54;8.50;99.90
46139;DHT22;32398;49.112;8.598;2024-02-21T01:10:21;8.40;99.90
46139;DHT22;32398;49.112;8.598;2024-02-21T01:12:48;8.40;99.90
46139;DHT22;32398;49.112;8.598;2024-02-21T01:15:14;8.50;99.90
46139;DHT22;32398;49.112;8.598;2024-02-21T01:17:41;8.40;99.90
46139;DHT22;32398;49.112;8.598;2024-02-21T01:20:09;8.40;99.90
46139;DHT22;32398;49.112;8.598;2024-02-21T01:22:36;8.40;99.90
46139;DHT22;32398;49.112;8.598;2024-02-21T01:25:02;8.50;99.90
46139;DHT22;32398;49.112;8.598;2024-02-21T01:27:29;8.40;99.90
46139;DHT22;32398;49.112;8.598;2024-02-21T01:29:56;8.40;99.90
46139;DHT22;32398;49.112;8.598;2024-02-21T01:32:22;8.40;99.90
46139;DHT22;32398;49.112;8.598;2024-02-21T01:34:50;8.40;99.90
46139;DHT22;32398;49.112;8.598;2024-02-21T01:37:18;8.40;99.90
46139;DHT22;32398;49.112;8.598;2024-02-21T01:39:44;8.40;99.90
46139;DHT22;32398;49.112;8.598;2024-02-21T01:42:11;8.40;99.90
46139;DHT22;32398;49.112;8.598;2024-02-21T01:44:37;8.40;99.90
46139;DHT22;32398;49.112;8.598;2024-02-21T01:47:04;8.40;99.90
46139;DHT22;32398;49.112;8.598;2024-02-21T01:49:31;8.40;99.90
46139;DHT22;32398;49.112;8.598;2024-02-21T01:51:57;8.40;99.90
46139;DHT22;32398;49.112;8.598;2024-02-21T01:54:25;8.40;99.90
46139;DHT22;32398;49.112;8.598;2024-02-21T01:56:53;8.30;99.90
46139;DHT22;32398;49.112;8.598;2024-02-21T01:59:20;8.30;99.90
46139;DHT22;32398;49.112;8.598;2024-02-21T02:01:47;8.30;99.90
46139;DHT22;32398;49.112;8.598;2024-02-21T02:04:14;8.30;99.90
46139;DHT22;32398;49.112;8.598;2024-02-21T02:06:40;8.30;99.90
46139;DHT22;32398;49.112;8.598;2024-02-21T02:09:07;8.40;99.90
46139;DHT22;32398;49.112;8.598;2024-02-21T02:11:35;8.30;99.90
46139;DHT22;32398;49.112;8.598;2024-02-21T02:14:02;8.30;99.90
46139;DHT22;32398;49.112;8.598;2024-02-21T02:16:28;8.30;99.90
46139;DHT22;32398;49.112;8.598;2024-02-21T02:18:55;8.20;99.90
46139;DHT22;32398;49.112;8.598;2024-02-21T02:21:23;8.30;99.90
46139;DHT22;32398;49.112;8.598;2024-02-21T02:23:51;8.30;99.90
46139;DHT22;32398;49.112;8.598;2024-02-21T02:26:18;8.30;99.90
46139;DHT22;32398;49.112;8.598;2024-02-21T02:28:44;8.30;99.90
46139;DHT22;32398;49.112;8.598;2024-02-21T02:31:11;8.30;99.90
46139;DHT22;32398;49.112;8.598;2024-02-21T02:33:37;8.30;99.90
46139;DHT22;32398;49.112;8.598;2024-02-21T02:36:05;8.30;99.90
46139;DHT22;32398;49.112;8.598;2024-02-21T02:38:31;8.30;99.90
46139;DHT22;32398;49.112;8.598;2024-02-21T02:40:59;8.20;99.90
46139;DHT22;32398;49.112;8.598;2024-02-21T02:43:26;8.30;99.90
46139;DHT22;32398;49.112;8.598;2024-02-21T02:45:52;8.20;99.90
46139;DHT22;32398;49.112;8.598;2024-02-21T02:48:19;8.20;99.90
46139;DHT22;32398;49.112;8.598;2024-02-21T02:50:46;8.20;99.90
46139;DHT22;32398;49.112;8.598;2024-02-21T02:53:12;8.20;99.90
46139;DHT22;32398;49.112;8.598;2024-02-21T02:55:39;8.20;99.90
46139;DHT22;32398;49.112;8.598;2024-02-21T02:58:07;8.20;99.90
46139;DHT22;32398;49.112;8.598;2024-02-21T03:00:34;8.20;99.90
46139;DHT22;32398;49.112;8.598;2024-02-21T03:03:01;8.20;99.90
46139;DHT22;32398;49.112;8.598;2024-02-21T03:05:29;8.20;99.90
46139;DHT22;32398;49.112;8.598;2024-02-21T03:07:55;8.20;99.90
46139;DHT22;32398;49.112;8.598;2024-02-21T03:10:22;8.20;99.90
46139;DHT22;32398;49.112;8.598;2024-02-21T03:12:49;8.20;99.90
46139;DHT22;32398;49.112;8.598;2024-02-21T03:15:19;8.20;99.90
46139;DHT22;32398;49.112;8.598;2024-02-21T03:17:46;8.10;99.90
46139;DHT22;32398;49.112;8.598;2024-02-21T03:20:12;8.10;99.90
46139;DHT22;32398;49.112;8.598;2024-02-21T03:22:39;8.20;99.90
46139;DHT22;32398;49.112;8.598;2024-02-21T03:25:06;8.20;99.90
46139;DHT22;32398;49.112;8.598;2024-02-21T03:27:33;8.10;99.90
46139;DHT22;32398;49.112;8.598;2024-02-21T03:30:00;8.20;99.90
46139;DHT22;32398;49.112;8.598;2024-02-21T03:32:28;8.10;99.90
46139;DHT22;32398;49.112;8.598;2024-02-21T03:34:54;8.10;99.90
46139;DHT22;32398;49.112;8.598;2024-02-21T03:37:21;8.10;99.90
46139;DHT22;32398;49.112;8.598;2024-02-21T03:39:48;8.10;99.90
46139;DHT22;32398;49.112;8.598;2024-02-21T03:42:14;8.10;99.90
46139;DHT22;32398;49.112;8.598;2024-02-21T03:44:41;8.10;99.90
46139;DHT22;32398;49.112;8.598;2024-02-21T03:47:07;8.10;99.90
46139;DHT22;32398;49.112;8.598;2024-02-21T03:49:38;8.10;99.90
46139;DHT22;32398;49.112;8.598;2024-02-21T03:52:04;8.10;99.90
46139;DHT22;32398;49.112;8.598;2024-02-21T03:54:31;8.10;99.90
46139;DHT22;32398;49.112;8.598;2024-02-21T03:56:58;8.00;99.90
46139;DHT22;32398;49.112;8.598;2024-02-21T03:59:24;8.10;99.90
46139;DHT22;32398;49.112;8.598;2024-02-21T04:01:51;8.00;99.90
46139;DHT22;32398;49.112;8.598;2024-02-21T04:04:18;8.10;99.90
46139;DHT22;32398;49.112;8.598;2024-02-21T04:06:48;8.00;99.90
46139;DHT22;32398;49.112;8.598;2024-02-21T04:09:15;8.00;99.90
46139;DHT22;32398;49.112;8.598;2024-02-21T04:11:42;8.00;99.90
46139;DHT22;32398;49.112;8.598;2024-02-21T04:14:08;8.00;99.90
46139;DHT22;32398;49.112;8.598;2024-02-21T04:16:36;8.00;99.90
46139;DHT22;32398;49.112;8.598;2024-02-21T04:19:03;8.00;99.90
46139;DHT22;32398;49.112;8.598;2024-02-21T04:21:29;8.30;99.90
46139;DHT22;32398;49.112;8.598;2024-02-21T04:23:57;8.00;99.90
46139;DHT22;32398;49.112;8.598;2024-02-21T04:26:24;8.00;99.90
46139;DHT22;32398;49.112;8.598;2024-02-21T04:28:51;8.00;99.90
46139;DHT22;32398;49.112;8.598;2024-02-21T04:31:18;8.00;99.90
46139;DHT22;32398;49.112;8.598;2024-02-21T04:33:44;7.90;99.90
46139;DHT22;32398;49.112;8.598;2024-02-21T04:36:11;7.90;99.90
46139;DHT22;32398;49.112;8.598;2024-02-21T04:38:37;8.00;99.90
46139;DHT22;32398;49.112;8.598;2024-02-21T04:41:06;7.90;99.90
46139;DHT22;32398;49.112;8.598;2024-02-21T04:43:33;7.90;99.90
46139;DHT22;32398;49.112;8.598;2024-02-21T04:46:00;7.90;99.90
46139;DHT22;32398;49.112;8.598;2024-02-21T04:48:27;7.90;99.90
46139;DHT22;32398;49.112;8.598;2024-02-21T04:50:53;7.90;99.90
46139;DHT22;32398;49.112;8.598;2024-02-21T04:53:20;7.90;99.90
46139;DHT22;32398;49.112;8.598;2024-02-21T04:55:47;7.90;99.90
46139;DHT22;32398;49.112;8.598;2024-02-21T04:58:14;7.90;99.90
46139;DHT22;32398;49.112;8.598;2024-02-21T05:00:41;7.90;99.90
46139;DHT22;32398;49.112;8.598;2024-02-21T05:03:08;7.90;99.90
46139;DHT22;32398;49.112;8.598;2024-02-21T05:05:34;7.90;99.90
46139;DHT22;32398;49.112;8.598;2024-02-21T05:08:01;7.80;99.90
46139;DHT22;32398;49.112;8.598;2024-02-21T05:10:28;7.90;99.90
46139;DHT22;32398;49.112;8.598;2024-02-21T05:12:54;7.90;99.90
46139;DHT22;32398;49.112;8.598;2024-02-21T05:15:22;7.90;99.90
46139;DHT22;32398;49.112;8.598;2024-02-21T05:17:49;7.80;99.90
46139;DHT22;32398;49.112;8.598;2024-02-21T05:20:16;7.90;99.90
46139;DHT22;32398;49.112;8.598;2024-02-21T05:22:42;7.90;99.90
46139;DHT22;32398;49.112;8.598;2024-02-21T05:25:09;7.80;99.90
46139;DHT22;32398;49.112;8.598;2024-02-21T05:27:35;7.80;99.90
46139;DHT22;32398;49.112;8.598;2024-02-21T05:30:04;7.80;99.90
46139;DHT22;32398;49.112;8.598;2024-02-21T05:32:33;7.80;99.90
46139;DHT22;32398;49.112;8.598;2024-02-21T05:34:59;7.80;99.90
46139;DHT22;32398;49.112;8.598;2024-02-21T05:37:26;7.80;99.90
46139;DHT22;32398;49.112;8.598;2024-02-21T05:39:52;7.80;99.90
46139;DHT22;32398;49.112;8.598;2024-02-21T05:42:19;7.80;99.90
46139;DHT22;32398;49.112;8.598;2024-02-21T05:44:46;7.70;99.90
46139;DHT22;32398;49.112;8.598;2024-02-21T05:47:12;7.70;99.90
46139;DHT22;32398;49.112;8.598;2024-02-21T05:49:41;7.70;99.90
46139;DHT22;32398;49.112;8.598;2024-02-21T05:52:08;7.70;99.90
46139;DHT22;32398;49.112;8.598;2024-02-21T05:54:37;7.70;99.90
46139;DHT22;32398;49.112;8.598;2024-02-21T05:57:04;7.70;99.90
46139;DHT22;32398;49.112;8.598;2024-02-21T05:59:30;7.60;99.90
46139;DHT22;32398;49.112;8.598;2024-02-21T06:01:57;7.60;99.90
46139;DHT22;32398;49.112;8.598;2024-02-21T06:04:24;7.60;99.90
46139;DHT22;32398;49.112;8.598;2024-02-21T06:06:52;7.60;99.90
46139;DHT22;32398;49.112;8.598;2024-02-21T06:09:18;7.60;99.90
46139;DHT22;32398;49.112;8.598;2024-02-21T06:11:45;7.60;99.90
46139;DHT22;32398;49.112;8.598;2024-02-21T06:14:12;7.60;99.90
46139;DHT22;32398;49.112;8.598;2024-02-21T06:16:39;7.60;99.90
46139;DHT22;32398;49.112;8.598;2024-02-21T06:19:05;7.60;99.90
46139;DHT22;32398;49.112;8.598;2024-02-21T06:21:32;7.50;99.90
46139;DHT22;32398;49.112;8.598;2024-02-21T06:24:00;7.50;99.90
46139;DHT22;32398;49.112;8.598;2024-02-21T06:26:26;7.50;99.90
46139;DHT22;32398;49.112;8.598;2024-02-21T06:28:53;7.50;99.90
46139;DHT22;32398;49.112;8.598;2024-02-21T06:31:19;7.50;99.90
46139;DHT22;32398;49.112;8.598;2024-02-21T06:33:46;7.50;99.90
46139;DHT22;32398;49.112;8.598;2024-02-21T06:36:12;7.50;99.90
46139;DHT22;32398;49.112;8.598;2024-02-21T06:38:39;7.40;99.90
46139;DHT22;32398;49.112;8.598;2024-02-21T06:41:07;7.50;99.90
46139;DHT22;32398;49.112;8.598;2024-02-21T06:43:40;7.40;99.90
46139;DHT22;32398;49.112;8.598;2024-02-21T06:46:07;7.40;99.90
46139;DHT22;32398;49.112;8.598;2024-02-21T06:48:33;7.40;99.90
46139;DHT22;32398;49.112;8.598;2024-02-21T06:51:00;7.40;99.90
46139;DHT22;32398;49.112;8.598;2024-02-21T06:53:26;7.40;99.90
46139;DHT22;32398;49.112;8.598;2024-02-21T06:55:53;7.40;99.90
46139;DHT22;32398;49.112;8.598;2024-02-21T06:58:21;7.30;99.90
46139;DHT22;32398;49.112;8.598;2024-02-21T07:00:47;7.40;99.90
46139;DHT22;32398;49.112;8.598;2024-02-21T07:03:14;7.40;99.90
46139;DHT22;32398;49.112;8.598;2024-02-21T07:05:40;7.30;99.90
46139;DHT22;32398;49.112;8.598;2024-02-21T07:08:07;7.30;99.90
46139;DHT22;32398;49.112;8.598;2024-02-21T07:10:33;7.30;99.90
46139;DHT22;32398;49.112;8.598;2024-02-21T07:13:00;7.30;99.90
46139;DHT22;32398;49.112;8.598;2024-02-21T07:15:28;7.40;99.90
46139;DHT22;32398;49.112;8.598;2024-02-21T07:17:56;7.30;99.90
46139;DHT22;32398;49.112;8.598;2024-02-21T07:20:22;7.30;99.90
46139;DHT22;32398;49.112;8.598;2024-02-21T07:22:49;7.30;99.90
46139;DHT22;32398;49.112;8.598;2024-02-21T07:25:15;7.30;99.90
46139;DHT22;32398;49.112;8.598;2024-02-21T07:27:42;7.30;99.90
46139;DHT22;32398;49.112;8.598;2024-02-21T07:30:09;7.30;99.90
46139;DHT22;32398;49.112;8.598;2024-02-21T07:32:37;7.30;99.90
46139;DHT22;32398;49.112;8.598;2024-02-21T07:35:04;7.20;99.90
46139;DHT22;32398;49.112;8.598;2024-02-21T07:37:31;7.30;99.90
46139;DHT22;32398;49.112;8.598;2024-02-21T07:39:57;7.20;99.90
46139;DHT22;32398;49.112;8.598;2024-02-21T07:42:24;7.20;99.90
46139;DHT22;32398;49.112;8.598;2024-02-21T07:44:50;7.20;99.90
46139;DHT22;32398;49.112;8.598;2024-02-21T07:47:17;7.20;99.90
46139;DHT22;32398;49.112;8.598;2024-02-21T07:49:45;7.20;99.90
46139;DHT22;32398;49.112;8.598;2024-02-21T07:52:14;7.20;99.90
46139;DHT22;32398;49.112;8.598;2024-02-21T07:54:40;7.20;99.90
46139;DHT22;32398;49.112;8.598;2024-02-21T07:57:07;7.20;99.90
46139;DHT22;32398;49.112;8.598;2024-02-21T07:59:34;7.20;99.90
46139;DHT22;32398;49.112;8.598;2024-02-21T08:02:00;7.20;99.90
46139;DHT22;32398;49.112;8.598;2024-02-21T08:04:27;7.20;99.90
46139;DHT22;32398;49.112;8.598;2024-02-21T08:06:55;7.20;99.90
46139;DHT22;32398;49.112;8.598;2024-02-21T08:09:24;7.20;99.90
46139;DHT22;32398;49.112;8.598;2024-02-21T08:11:51;7.20;99.90
46139;DHT22;32398;49.112;8.598;2024-02-21T08:14:17;7.20;99.90
46139;DHT22;32398;49.112;8.598;2024-02-21T08:16:44;7.20;99.90
46139;DHT22;32398;49.112;8.598;2024-02-21T08:19:10;7.20;99.90
46139;DHT22;32398;49.112;8.598;2024-02-21T08:21:37;7.30;99.90
46139;DHT22;32398;49.112;8.598;2024-02-21T08:24:05;7.20;99.90
46139;DHT22;32398;49.112;8.598;2024-02-21T08:26:31;7.20;99.90
46139;DHT22;32398;49.112;8.598;2024-02-21T08:28:58;7.20;99.90
46139;DHT22;32398;49.112;8.598;2024-02-21T08:31:25;7.30;99.90
46139;DHT22;32398;49.112;8.598;2024-02-21T08:33:56;7.60;99.90
46139;DHT22;32398;49.112;8.598;2024-02-21T08:36:27;7.30;99.90
46139;DHT22;32398;49.112;8.598;2024-02-21T08:38:54;7.30;99.90
46139;DHT22;32398;49.112;8.598;2024-02-21T08:41:22;7.30;99.90
46139;DHT22;32398;49.112;8.598;2024-02-21T08:43:49;7.30;99.90
46139;DHT22;32398;49.112;8.598;2024-02-21T08:46:16;7.30;99.90
46139;DHT22;32398;49.112;8.598;2024-02-21T08:48:42;7.30;99.90
46139;DHT22;32398;49.112;8.598;2024-02-21T08:51:11;7.30;99.90
46139;DHT22;32398;49.112;8.598;2024-02-21T08:53:38;7.30;99.90
46139;DHT22;32398;49.112;8.598;2024-02-21T08:56:05;7.30;99.90
46139;DHT22;32398;49.112;8.598;2024-02-21T08:58:34;7.30;99.90
46139;DHT22;32398;49.112;8.598;2024-02-21T09:01:01;7.30;99.90
46139;DHT22;32398;49.112;8.598;2024-02-21T09:03:30;7.30;99.90
46139;DHT22;32398;49.112;8.598;2024-02-21T09:05:57;7.30;99.90
46139;DHT22;32398;49.112;8.598;2024-02-21T09:08:23;7.40;99.90
46139;DHT22;32398;49.112;8.598;2024-02-21T09:10:50;7.40;99.90
46139;DHT22;32398;49.112;8.598;2024-02-21T09:13:17;7.30;99.90
46139;DHT22;32398;49.112;8.598;2024-02-21T09:15:45;7.40;99.90
46139;DHT22;32398;49.112;8.598;2024-02-21T09:18:11;7.40;99.90
46139;DHT22;32398;49.112;8.598;2024-02-21T09:20:38;7.40;99.90
46139;DHT22;32398;49.112;8.598;2024-02-21T09:23:05;7.40;99.90
46139;DHT22;32398;49.112;8.598;2024-02-21T09:25:31;7.40;99.90
46139;DHT22;32398;49.112;8.598;2024-02-21T09:27:59;7.50;99.90
46139;DHT22;32398;49.112;8.598;2024-02-21T09:30:26;7.50;99.90
46139;DHT22;32398;49.112;8.598;2024-02-21T09:32:54;7.50;99.90
46139;DHT22;32398;49.112;8.598;2024-02-21T09:35:23;7.50;99.90
46139;DHT22;32398;49.112;8.598;2024-02-21T09:37:52;7.50;99.90
46139;DHT22;32398;49.112;8.598;2024-02-21T09:40:18;7.50;99.90
46139;DHT22;32398;49.112;8.598;2024-02-21T09:42:46;7.60;99.90
46139;DHT22;32398;49.112;8.598;2024-02-21T09:45:14;7.60;99.90
46139;DHT22;32398;49.112;8.598;2024-02-21T09:47:43;7.60;99.90
46139;DHT22;32398;49.112;8.598;2024-02-21T09:50:14;7.70;99.90
46139;DHT22;32398;49.112;8.598;2024-02-21T09:52:41;7.70;99.90
46139;DHT22;32398;49.112;8.598;2024-02-21T09:55:09;7.70;99.90
46139;DHT22;32398;49.112;8.598;2024-02-21T09:57:38;7.70;99.90
46139;DHT22;32398;49.112;8.598;2024-02-21T10:00:05;7.80;99.90
46139;DHT22;32398;49.112;8.598;2024-02-21T10:02:33;7.80;99.90
46139;DHT22;32398;49.112;8.598;2024-02-21T10:04:59;8.20;99.90
46139;DHT22;32398;49.112;8.598;2024-02-21T10:07:27;9.10;99.90
46139;DHT22;32398;49.112;8.598;2024-02-21T10:10:00;10.10;97.70
46139;DHT22;32398;49.112;8.598;2024-02-21T10:12:26;10.80;95.90
46139;DHT22;32398;49.112;8.598;2024-02-21T10:14:59;11.50;94.30
46139;DHT22;32398;49.112;8.598;2024-02-21T10:17:26;12.00;92.00
46139;DHT22;32398;49.112;8.598;2024-02-21T10:19:52;12.30;91.30
46139;DHT22;32398;49.112;8.598;2024-02-21T10:22:19;12.60;90.50
46139;DHT22;32398;49.112;8.598;2024-02-21T10:24:47;12.90;89.10
46139;DHT22;32398;49.112;8.598;2024-02-21T10:27:14;13.10;88.00
46139;DHT22;32398;49.112;8.598;2024-02-21T10:29:41;13.20;86.80
46139;DHT22;32398;49.112;8.598;2024-02-21T10:32:08;13.00;85.90
46139;DHT22;32398;49.112;8.598;2024-02-21T10:34:35;12.70;86.70
46139;DHT22;32398;49.112;8.598;2024-02-21T10:37:02;12.40;87.20
46139;DHT22;32398;49.112;8.598;2024-02-21T10:39:29;12.10;88.00
46139;DHT22;32398;49.112;8.598;2024-02-21T10:41:58;12.10;88.70
46139;DHT22;32398;49.112;8.598;2024-02-21T10:44:26;12.10;88.80
46139;DHT22;32398;49.112;8.598;2024-02-21T10:46:53;12.20;87.40
46139;DHT22;32398;49.112;8.598;2024-02-21T10:49:22;12.40;87.30
46139;DHT22;32398;49.112;8.598;2024-02-21T10:51:50;12.50;85.70
46139;DHT22;32398;49.112;8.598;2024-02-21T10:54:24;12.60;83.80
46139;DHT22;32398;49.112;8.598;2024-02-21T10:56:57;12.50;84.40
46139;DHT22;32398;49.112;8.598;2024-02-21T10:59:24;12.30;83.80
46139;DHT22;32398;49.112;8.598;2024-02-21T11:01:52;12.10;83.10
46139;DHT22;32398;49.112;8.598;2024-02-21T11:04:18;12.00;84.10
46139;DHT22;32398;49.112;8.598;2024-02-21T11:06:45;11.90;84.10
46139;DHT22;32398;49.112;8.598;2024-02-21T11:09:12;11.90;85.00
46139;DHT22;32398;49.112;8.598;2024-02-21T11:11:39;11.70;86.00
46139;DHT22;32398;49.112;8.598;2024-02-21T11:14:07;11.50;85.40
46139;DHT22;32398;49.112;8.598;2024-02-21T11:16:37;11.30;86.30
46139;DHT22;32398;49.112;8.598;2024-02-21T11:19:05;11.30;88.10
46139;DHT22;32398;49.112;8.598;2024-02-21T11:21:33;11.30;87.90
46139;DHT22;32398;49.112;8.598;2024-02-21T11:23:59;11.30;87.90
46139;DHT22;32398;49.112;8.598;2024-02-21T11:26:27;11.30;88.30
46139;DHT22;32398;49.112;8.598;2024-02-21T11:28:58;11.30;88.20
46139;DHT22;32398;49.112;8.598;2024-02-21T11:31:26;11.30;88.20
46139;DHT22;32398;49.112;8.598;2024-02-21T11:33:53;11.40;88.40
46139;DHT22;32398;49.112;8.598;2024-02-21T11:36:24;11.50;86.90
46139;DHT22;32398;49.112;8.598;2024-02-21T11:38:51;11.60;86.80
46139;DHT22;32398;49.112;8.598;2024-02-21T11:41:17;11.70;86.60
46139;DHT22;32398;49.112;8.598;2024-02-21T11:43:44;11.90;86.50
46139;DHT22;32398;49.112;8.598;2024-02-21T11:46:10;12.00;86.00
46139;DHT22;32398;49.112;8.598;2024-02-21T11:48:38;12.00;85.70
46139;DHT22;32398;49.112;8.598;2024-02-21T11:51:05;12.00;84.90
46139;DHT22;32398;49.112;8.598;2024-02-21T11:53:31;12.00;85.50
46139;DHT22;32398;49.112;8.598;2024-02-21T11:55:58;12.10;86.10
46139;DHT22;32398;49.112;8.598;2024-02-21T11:58:25;12.00;84.30
46139;DHT22;32398;49.112;8.598;2024-02-21T12:00:52;12.00;85.80
46139;DHT22;32398;49.112;8.598;2024-02-21T12:03:18;12.00;85.70
46139;DHT22;32398;49.112;8.598;2024-02-21T12:05:47;12.00;86.40
46139;DHT22;32398;49.112;8.598;2024-02-21T12:08:14;11.90;86.80
46139;DHT22;32398;49.112;8.598;2024-02-21T12:10:41;11.90;85.90
46139;DHT22;32398;49.112;8.598;2024-02-21T12:13:09;11.80;85.40
46139;DHT22;32398;49.112;8.598;2024-02-21T12:15:38;11.80;85.90
46139;DHT22;32398;49.112;8.598;2024-02-21T12:18:04;11.70;85.50
46139;DHT22;32398;49.112;8.598;2024-02-21T12:20:31;11.70;85.70
46139;DHT22;32398;49.112;8.598;2024-02-21T12:23:01;11.60;85.20
46139;DHT22;32398;49.112;8.598;2024-02-21T12:25:28;11.60;85.00
46139;DHT22;32398;49.112;8.598;2024-02-21T12:27:55;11.60;84.60
46139;DHT22;32398;49.112;8.598;2024-02-21T12:30:22;11.60;84.40
46139;DHT22;32398;49.112;8.598;2024-02-21T12:32:48;11.60;85.20
46139;DHT22;32398;49.112;8.598;2024-02-21T12:35:15;11.60;84.00
46139;DHT22;32398;49.112;8.598;2024-02-21T12:37:42;11.60;82.80
46139;DHT22;32398;49.112;8.598;2024-02-21T12:40:11;11.60;83.60
46139;DHT22;32398;49.112;8.598;2024-02-21T12:42:39;11.60;83.30
46139;DHT22;32398;49.112;8.598;2024-02-21T12:45:06;11.50;84.00
46139;DHT22;32398;49.112;8.598;2024-02-21T12:47:33;11.60;84.60
46139;DHT22;32398;49.112;8.598;2024-02-21T12:49:59;11.60;85.00
46139;DHT22;32398;49.112;8.598;2024-02-21T12:52:28;11.70;83.80
46139;DHT22;32398;49.112;8.598;2024-02-21T12:54:55;11.70;83.10
46139;DHT22;32398;49.112;8.598;2024-02-21T12:57:25;11.70;84.30
46139;DHT22;32398;49.112;8.598;2024-02-21T12:59:52;11.80;83.80
46139;DHT22;32398;49.112;8.598;2024-02-21T13:02:18;11.80;84.20
46139;DHT22;32398;49.112;8.598;2024-02-21T13:04:46;11.80;82.20
46139;DHT22;32398;49.112;8.598;2024-02-21T13:07:13;11.80;83.00
46139;DHT22;32398;49.112;8.598;2024-02-21T13:09:39;11.90;82.00
46139;DHT22;32398;49.112;8.598;2024-02-21T13:12:06;11.90;83.40
46139;DHT22;32398;49.112;8.598;2024-02-21T13:14:34;11.90;81.50
46139;DHT22;32398;49.112;8.598;2024-02-21T13:17:04;11.80;81.10
46139;DHT22;32398;49.112;8.598;2024-02-21T13:19:31;11.80;81.40
46139;DHT22;32398;49.112;8.598;2024-02-21T13:21:57;11.80;81.10
46139;DHT22;32398;49.112;8.598;2024-02-21T13:24:24;11.80;82.60
46139;DHT22;32398;49.112;8.598;2024-02-21T13:26:50;11.80;82.70
46139;DHT22;32398;49.112;8.598;2024-02-21T13:29:17;11.70;84.40
46139;DHT22;32398;49.112;8.598;2024-02-21T13:31:45;11.50;85.90
46139;DHT22;32398;49.112;8.598;2024-02-21T13:34:11;11.40;86.50
46139;DHT22;32398;49.112;8.598;2024-02-21T13:36:38;11.20;87.50
46139;DHT22;32398;49.112;8.598;2024-02-21T13:39:04;11.20;88.30
46139;DHT22;32398;49.112;8.598;2024-02-21T13:41:32;11.10;89.00
46139;DHT22;32398;49.112;8.598;2024-02-21T13:43:59;11.00;89.90
46139;DHT22;32398;49.112;8.598;2024-02-21T13:46:26;11.00;90.50
46139;DHT22;32398;49.112;8.598;2024-02-21T13:48:56;10.90;90.70
46139;DHT22;32398;49.112;8.598;2024-02-21T13:51:29;10.90;91.10
46139;DHT22;32398;49.112;8.598;2024-02-21T13:53:56;10.80;91.70
46139;DHT22;32398;49.112;8.598;2024-02-21T13:56:22;10.80;91.80
46139;DHT22;32398;49.112;8.598;2024-02-21T13:58:49;10.80;92.10
46139;DHT22;32398;49.112;8.598;2024-02-21T14:01:16;10.80;92.30
46139;DHT22;32398;49.112;8.598;2024-02-21T14:03:43;10.80;90.00
46139;DHT22;32398;49.112;8.598;2024-02-21T14:06:11;10.90;87.80
46139;DHT22;32398;49.112;8.598;2024-02-21T14:08:38;11.00;88.60
46139;DHT22;32398;49.112;8.598;2024-02-21T14:11:05;11.00;90.10
46139;DHT22;32398;49.112;8.598;2024-02-21T14:13:32;11.00;90.50
46139;DHT22;32398;49.112;8.598;2024-02-21T14:15:58;10.90;90.80
46139;DHT22;32398;49.112;8.598;2024-02-21T14:18:25;10.90;91.30
46139;DHT22;32398;49.112;8.598;2024-02-21T14:20:52;10.80;91.40
46139;DHT22;32398;49.112;8.598;2024-02-21T14:23:20;10.80;91.40
46139;DHT22;32398;49.112;8.598;2024-02-21T14:25:47;10.80;92.10
46139;DHT22;32398;49.112;8.598;2024-02-21T14:28:13;10.70;92.20
46139;DHT22;32398;49.112;8.598;2024-02-21T14:30:40;10.80;92.10
46139;DHT22;32398;49.112;8.598;2024-02-21T14:33:06;10.80;92.30
46139;DHT22;32398;49.112;8.598;2024-02-21T14:35:33;10.70;92.20
46139;DHT22;32398;49.112;8.598;2024-02-21T14:37:59;10.70;92.40
46139;DHT22;32398;49.112;8.598;2024-02-21T14:40:28;10.70;92.40
46139;DHT22;32398;49.112;8.598;2024-02-21T14:42:55;10.70;92.90
46139;DHT22;32398;49.112;8.598;2024-02-21T14:45:21;10.70;93.10
46139;DHT22;32398;49.112;8.598;2024-02-21T14:47:49;10.70;93.10
46139;DHT22;32398;49.112;8.598;2024-02-21T14:50:15;10.60;93.30
46139;DHT22;32398;49.112;8.598;2024-02-21T14:52:42;10.70;93.60
46139;DHT22;32398;49.112;8.598;2024-02-21T14:55:09;10.70;93.70
46139;DHT22;32398;49.112;8.598;2024-02-21T14:57:39;10.80;92.90
46139;DHT22;32398;49.112;8.598;2024-02-21T15:00:06;10.80;92.50
46139;DHT22;32398;49.112;8.598;2024-02-21T15:02:34;10.80;92.50
46139;DHT22;32398;49.112;8.598;2024-02-21T15:05:01;10.80;92.60
46139;DHT22;32398;49.112;8.598;2024-02-21T15:07:28;10.80;93.00
46139;DHT22;32398;49.112;8.598;2024-02-21T15:09:55;10.80;93.20
46139;DHT22;32398;49.112;8.598;2024-02-21T15:12:22;10.80;93.20
46139;DHT22;32398;49.112;8.598;2024-02-21T15:14:50;10.80;93.10
46139;DHT22;32398;49.112;8.598;2024-02-21T15:17:17;10.80;93.50
46139;DHT22;32398;49.112;8.598;2024-02-21T15:19:44;10.80;93.40
46139;DHT22;32398;49.112;8.598;2024-02-21T15:22:10;10.80;93.80
46139;DHT22;32398;49.112;8.598;2024-02-21T15:24:37;10.80;94.20
46139;DHT22;32398;49.112;8.598;2024-02-21T15:27:04;10.80;94.00
46139;DHT22;32398;49.112;8.598;2024-02-21T15:29:31;10.80;94.10
46139;DHT22;32398;49.112;8.598;2024-02-21T15:31:59;10.80;94.30
46139;DHT22;32398;49.112;8.598;2024-02-21T15:34:25;10.70;94.10
46139;DHT22;32398;49.112;8.598;2024-02-21T15:36:52;10.70;94.30
46139;DHT22;32398;49.112;8.598;2024-02-21T15:39:18;10.70;94.40